Stations météo

Publicité
Briancon, France (7593): Température de l'air & dewpoint: 03.07.2020 15:00:00 - 09.07.2020 15:00:00 (CEST)Briancon, France (7593): Vitesse du vent: 03.07.2020 15:00:00 - 09.07.2020 15:00:00 (CEST)Briancon, France (7593): Direction du vent: 03.07.2020 15:00:00 - 09.07.2020 15:00:00 (CEST)Briancon, France (7593): Quantités de précipitations: 03.07.2020 15:00:00 - 09.07.2020 15:00:00 (CEST)
Date & Time tt [°C] td [°C] ff [km/h] ff [knt] dd rr [mm]
09.07.2020 15:00:00 30,6 6,5 21 12 WSW 0,0
09.07.2020 14:00:00 29,5 5,5 21 11 WSW 0,0
09.07.2020 13:00:00 29,6 2,0 10 6 SW 0,0
09.07.2020 12:00:00 27,5 2,5 5 3 W 0,0
09.07.2020 11:00:00 23,9 7,9 4 2 W 0,0
09.07.2020 10:00:00 21,0 6,1 2 1 WSW 0,0
09.07.2020 09:00:00 17,2 6,7 2 1 SSW 0,0
09.07.2020 08:00:00 13,9 6,3 2 1 W 0,0
09.07.2020 07:00:00 11,0 6,5 0 0 N 0,0
09.07.2020 06:00:00 11,3 6,4 4 2 ENE 0,0
09.07.2020 05:00:00 11,4 6,5 3 2 E 0,0
09.07.2020 04:00:00 11,8 7,1 0 0 N 0,0
09.07.2020 03:00:00 12,9 7,3 3 1 S 0,0
09.07.2020 02:00:00 13,4 8,5 0 0 N 0,0
09.07.2020 01:00:00 14,3 8,3 3 2 S 0,0
09.07.2020 00:00:00 15,3 9,0 0 0 N 0,0
08.07.2020 23:00:00 16,9 9,6 0 0 N 0,0
08.07.2020 22:00:00 18,5 9,8 3 1 NE 0,0
08.07.2020 21:00:00 20,6 10,7 3 2 E 0,0
08.07.2020 20:00:00 24,7 10,2 13 7 WSW 0,0
08.07.2020 19:00:00 26,1 10,7 14 7 W 0,0
08.07.2020 18:00:00 27,5 10,7 20 11 WSW 0,0
08.07.2020 17:00:00 28,1 11,2 22 12 WSW 0,0
08.07.2020 16:00:00 27,5 10,7 24 13 WSW 0,0
08.07.2020 15:00:00 27,3 10,1 24 13 WSW 0,0
08.07.2020 14:00:00 25,9 10,5 21 11 W 0,0
08.07.2020 13:00:00 24,1 9,3 20 11 W 0,0
08.07.2020 12:00:00 21,5 10,0 19 10 W 0,0
08.07.2020 11:00:00 21,5 9,7 5 3 WNW 0,0
08.07.2020 10:00:00 19,4 9,3 4 2 SW 0,0
08.07.2020 09:00:00 16,4 8,9 3 2 W 0,0
08.07.2020 08:00:00 13,7 8,3 2 1 W 0,0
08.07.2020 07:00:00 10,5 7,7 0 0 N 0,0
08.07.2020 06:00:00 10,2 7,4 2 1 E 0,0
08.07.2020 05:00:00 10,3 7,4 2 1 ENE 0,0
08.07.2020 04:00:00 11,1 7,6 2 1 NNE 0,0
08.07.2020 03:00:00 11,7 7,6 2 1 E 0,0
08.07.2020 02:00:00 12,4 7,7 2 1 E 0,0
08.07.2020 01:00:00 13,5 7,9 2 1 SE 0,0
08.07.2020 00:00:00 14,9 8,6 2 1 S 0,0
07.07.2020 23:00:00 17,7 8,8 8 4 NE 0,0
07.07.2020 22:00:00 19,4 9,0 11 6 NE 0,0
07.07.2020 21:00:00 21,0 7,6 12 6 NNE 0,0
07.07.2020 20:00:00 23,8 7,0 13 7 S 0,0
07.07.2020 19:00:00 26,2 7,7 16 9 W 0,0
07.07.2020 18:00:00 26,7 8,2 21 12 WSW 0,0
07.07.2020 17:00:00 27,1 7,5 24 13 WSW 0,0
07.07.2020 16:00:00 27,3 7,2 24 13 WSW 0,0
07.07.2020 15:00:00 27,0 7,4 21 11 WSW 0,0
07.07.2020 14:00:00 25,2 3,2 9 5 NNW 0,0
07.07.2020 13:00:00 23,3 2,2 20 11 N 0,0
07.07.2020 12:00:00 23,0 0,7 14 8 NNE 0,0
07.07.2020 11:00:00 21,8 -0,9 19 10 NNE 0,0
07.07.2020 10:00:00 18,6 -2,4 6 4 S 0,0
07.07.2020 09:00:00 14,9 -1,7 2 1 SW 0,0
07.07.2020 08:00:00 11,0 -1,4 3 2 S 0,0
07.07.2020 07:00:00 7,9 -3,9 2 1 E 0,0
07.07.2020 06:00:00 11,5 -7,4 11 6 ENE 0,0
07.07.2020 05:00:00 11,4 -3,9 17 9 ENE 0,0
07.07.2020 04:00:00 12,2 -2,5 13 7 ENE 0,0
07.07.2020 03:00:00 12,9 -0,7 18 10 ENE 0,0
07.07.2020 02:00:00 13,3 0,3 11 6 ENE 0,0
07.07.2020 01:00:00 14,8 1,3 15 8 ENE 0,0
07.07.2020 00:00:00 16,2 1,1 16 9 NE 0,0
06.07.2020 23:00:00 17,0 0,6 18 10 ENE 0,0
06.07.2020 22:00:00 18,7 -1,2 21 11 ENE 0,0
06.07.2020 21:00:00 19,7 -0,4 20 11 ENE 0,0
06.07.2020 20:00:00 21,6 0,1 25 13 NNE 0,0
06.07.2020 19:00:00 24,2 0,5 18 10 NNE 0,0
06.07.2020 18:00:00 25,9 1,9 19 10 NNE 0,0
06.07.2020 17:00:00 28,2 6,3 11 6 WNW 0,0
06.07.2020 16:00:00 29,0 8,6 10 5 W 0,0
06.07.2020 15:00:00 28,5 9,2 14 8 W 0,0
06.07.2020 14:00:00 28,7 9,4 13 7 W 0,0
06.07.2020 13:00:00 28,2 4,5 7 4 WSW 0,0
06.07.2020 12:00:00 26,8 5,7 8 5 WSW 0,0
06.07.2020 11:00:00 24,9 2,3 5 3 W 0,0
06.07.2020 10:00:00 22,0 10,2 2 1 ENE 0,0
06.07.2020 09:00:00 18,1 8,9 3 1 S 0,0
06.07.2020 08:00:00 15,3 8,3 0 0 N 0,0
06.07.2020 07:00:00 13,0 7,9 4 2 ESE 0,0
06.07.2020 06:00:00 13,3 8,4 3 2 E 0,0
06.07.2020 05:00:00 13,2 8,5 2 1 SSE 0,0
06.07.2020 04:00:00 15,4 8,6 3 1 SE 0,0
06.07.2020 03:00:00 14,6 9,2 4 2 ESE 0,0
06.07.2020 02:00:00 14,5 9,7 2 1 E 0,0
06.07.2020 01:00:00 15,7 10,2 0 0 N 0,0
06.07.2020 00:00:00 17,1 10,5 4 2 SE 0,0
05.07.2020 23:00:00 18,5 10,3 7 4 ENE 0,0
05.07.2020 22:00:00 19,9 11,1 5 3 ENE 0,0
05.07.2020 21:00:00 22,0 11,1 4 2 NW 0,0
05.07.2020 20:00:00 25,5 11,3 14 8 WSW 0,0
05.07.2020 19:00:00 27,3 10,9 18 10 W 0,0
05.07.2020 18:00:00 28,4 10,6 18 10 W 0,0
05.07.2020 17:00:00 28,9 10,5 18 10 W 0,0
05.07.2020 16:00:00 28,6 8,8 19 10 WSW 0,0
05.07.2020 15:00:00 27,7 8,5 23 12 WSW 0,0
05.07.2020 14:00:00 27,0 8,9 20 11 W 0,0
05.07.2020 13:00:00 26,4 7,4 16 8 WSW 0,0
05.07.2020 12:00:00 25,7 7,3 7 4 WSW 0,0
05.07.2020 11:00:00 22,5 4,0 4 2 SW 0,0
05.07.2020 10:00:00 19,7 5,0 4 2 S 0,0
05.07.2020 09:00:00 15,6 4,3 2 1 W 0,0
05.07.2020 08:00:00 13,2 3,8 2 1 ESE 0,0
05.07.2020 07:00:00 8,7 2,0 3 1 NE 0,0
05.07.2020 06:00:00 9,0 1,6 2 1 NW 0,0
05.07.2020 05:00:00 9,4 1,3 2 1 NNE 0,0
05.07.2020 04:00:00 9,7 2,1 3 1 SE 0,0
05.07.2020 03:00:00 10,3 3,1 3 1 SSE 0,0
05.07.2020 02:00:00 11,5 3,3 2 1 E 0,0
05.07.2020 01:00:00 12,4 4,4 2 1 W 0,0
05.07.2020 00:00:00 13,8 6,2 2 1 S 0,0
04.07.2020 23:00:00 16,8 5,4 10 5 ENE 0,0
04.07.2020 22:00:00 18,9 6,4 8 4 E 0,0
04.07.2020 21:00:00 19,1 10,1 2 1 SE 0,0
04.07.2020 20:00:00 23,5 9,8 8 5 WSW 0,0
04.07.2020 19:00:00 25,4 7,5 14 7 WSW 0,0
04.07.2020 18:00:00 26,0 8,9 16 9 WSW 0,0
04.07.2020 17:00:00 25,9 9,3 19 10 WSW 0,0
04.07.2020 16:00:00 25,9 9,7 20 11 WSW 0,0
04.07.2020 15:00:00 25,6 8,6 17 9 WSW 0,0
04.07.2020 14:00:00 24,9 6,6 10 5 W 0,0
04.07.2020 13:00:00 23,4 7,5 7 4 W 0,0
04.07.2020 12:00:00 21,8 6,8 5 3 SW 0,0
04.07.2020 11:00:00 20,7 7,7 5 3 N 0,0
04.07.2020 10:00:00 18,5 9,6 3 1 W 0,0
04.07.2020 09:00:00 15,1 8,1 3 1 SSW 0,0
04.07.2020 08:00:00 12,3 7,8 0 0 N 0,0
04.07.2020 07:00:00 9,8 7,2 6 3 NE 0,0
04.07.2020 06:00:00 9,0 7,0 6 3 ENE 0,0
04.07.2020 05:00:00 10,8 7,1 7 4 ENE 0,0
04.07.2020 04:00:00 11,4 7,1 7 4 NE 0,0
04.07.2020 03:00:00 11,3 7,0 14 7 ENE 0,0
04.07.2020 02:00:00 12,2 7,3 15 8 ENE 0,0
04.07.2020 01:00:00 13,0 7,4 21 11 ENE 0,0
04.07.2020 00:00:00 13,4 8,5 12 7 E 0,0
03.07.2020 23:00:00 13,7 9,1 15 8 ENE 0,0
03.07.2020 22:00:00 13,1 8,6 10 5 E 0,0
03.07.2020 21:00:00 13,2 10,2 5 3 E 0,0
03.07.2020 20:00:00 14,0 10,2 4 2 SE 0,0
03.07.2020 19:00:00 13,4 9,8 5 3 S 0,2
03.07.2020 18:00:00 13,2 8,9 14 8 E 1,8
03.07.2020 17:00:00 16,7 7,9 16 9 NNE 0,0
03.07.2020 16:00:00 17,7 8,3 17 9 NE 0,0
03.07.2020 15:00:00 19,2 7,3 17 9 N 0,0

tt = Température de l'air
td = dewpoint
ff = Vitesse du vent
dd = Direction du vent
rr = Quantités de précipitations

stations d'obs. à proximité